sensor_id;sensor_type;location;lat;lon;timestamp;P1;durP1;ratioP1;P2;durP2;ratioP2
47455;SDS011;33202;48.512;-2.780;2022-12-18T00:00:47;27.42;;;14.70;;
47455;SDS011;33202;48.512;-2.780;2022-12-18T00:03:14;28.60;;;15.05;;
47455;SDS011;33202;48.512;-2.780;2022-12-18T00:05:47;27.02;;;15.90;;
47455;SDS011;33202;48.512;-2.780;2022-12-18T00:08:13;29.65;;;15.57;;
47455;SDS011;33202;48.512;-2.780;2022-12-18T00:10:39;27.08;;;14.90;;
47455;SDS011;33202;48.512;-2.780;2022-12-18T00:13:05;27.27;;;15.35;;
47455;SDS011;33202;48.512;-2.780;2022-12-18T00:15:33;30.02;;;16.02;;
47455;SDS011;33202;48.512;-2.780;2022-12-18T00:17:59;26.75;;;15.25;;
47455;SDS011;33202;48.512;-2.780;2022-12-18T00:20:25;25.73;;;14.55;;
47455;SDS011;33202;48.512;-2.780;2022-12-18T00:22:51;28.02;;;14.52;;
47455;SDS011;33202;48.512;-2.780;2022-12-18T00:25:18;24.42;;;13.85;;
47455;SDS011;33202;48.512;-2.780;2022-12-18T00:27:44;29.98;;;15.45;;
47455;SDS011;33202;48.512;-2.780;2022-12-18T00:30:10;26.48;;;15.50;;
47455;SDS011;33202;48.512;-2.780;2022-12-18T00:32:36;27.42;;;15.07;;
47455;SDS011;33202;48.512;-2.780;2022-12-18T00:35:03;27.08;;;15.55;;
47455;SDS011;33202;48.512;-2.780;2022-12-18T00:37:29;24.90;;;14.00;;
47455;SDS011;33202;48.512;-2.780;2022-12-18T00:39:55;27.00;;;14.30;;
47455;SDS011;33202;48.512;-2.780;2022-12-18T00:42:21;26.25;;;14.77;;
47455;SDS011;33202;48.512;-2.780;2022-12-18T00:45:06;27.67;;;14.75;;
47455;SDS011;33202;48.512;-2.780;2022-12-18T00:47:32;26.58;;;14.32;;
47455;SDS011;33202;48.512;-2.780;2022-12-18T00:49:58;26.80;;;14.93;;
47455;SDS011;33202;48.512;-2.780;2022-12-18T00:52:24;25.50;;;14.23;;
47455;SDS011;33202;48.512;-2.780;2022-12-18T00:54:50;27.63;;;14.48;;
47455;SDS011;33202;48.512;-2.780;2022-12-18T00:57:16;26.73;;;15.00;;
47455;SDS011;33202;48.512;-2.780;2022-12-18T00:59:42;27.35;;;14.65;;
47455;SDS011;33202;48.512;-2.780;2022-12-18T01:02:08;25.83;;;14.52;;
47455;SDS011;33202;48.512;-2.780;2022-12-18T01:04:34;27.45;;;14.50;;
47455;SDS011;33202;48.512;-2.780;2022-12-18T01:07:00;25.55;;;14.32;;
47455;SDS011;33202;48.512;-2.780;2022-12-18T01:09:26;24.88;;;13.85;;
47455;SDS011;33202;48.512;-2.780;2022-12-18T01:11:52;26.55;;;14.65;;
47455;SDS011;33202;48.512;-2.780;2022-12-18T01:14:18;24.92;;;13.77;;
47455;SDS011;33202;48.512;-2.780;2022-12-18T01:16:44;24.17;;;13.77;;
47455;SDS011;33202;48.512;-2.780;2022-12-18T01:19:10;23.45;;;13.30;;
47455;SDS011;33202;48.512;-2.780;2022-12-18T01:21:36;24.40;;;13.00;;
47455;SDS011;33202;48.512;-2.780;2022-12-18T01:24:02;27.73;;;14.18;;
47455;SDS011;33202;48.512;-2.780;2022-12-18T01:26:28;24.20;;;14.48;;
47455;SDS011;33202;48.512;-2.780;2022-12-18T01:28:55;24.67;;;13.30;;
47455;SDS011;33202;48.512;-2.780;2022-12-18T01:31:25;22.55;;;12.77;;
47455;SDS011;33202;48.512;-2.780;2022-12-18T01:33:51;25.30;;;14.23;;
47455;SDS011;33202;48.512;-2.780;2022-12-18T01:36:27;26.17;;;13.95;;
47455;SDS011;33202;48.512;-2.780;2022-12-18T01:38:54;22.95;;;13.65;;
47455;SDS011;33202;48.512;-2.780;2022-12-18T01:41:25;25.77;;;13.20;;
47455;SDS011;33202;48.512;-2.780;2022-12-18T01:43:53;24.60;;;13.35;;
47455;SDS011;33202;48.512;-2.780;2022-12-18T01:48:47;25.13;;;12.80;;
47455;SDS011;33202;48.512;-2.780;2022-12-18T01:51:13;25.80;;;14.40;;
47455;SDS011;33202;48.512;-2.780;2022-12-18T01:53:40;24.42;;;13.90;;
47455;SDS011;33202;48.512;-2.780;2022-12-18T01:56:07;24.63;;;13.80;;
47455;SDS011;33202;48.512;-2.780;2022-12-18T02:01:18;26.52;;;14.55;;
47455;SDS011;33202;48.512;-2.780;2022-12-18T02:03:45;25.48;;;13.13;;
47455;SDS011;33202;48.512;-2.780;2022-12-18T02:06:13;23.85;;;13.57;;
47455;SDS011;33202;48.512;-2.780;2022-12-18T02:08:44;22.20;;;12.23;;
47455;SDS011;33202;48.512;-2.780;2022-12-18T02:13:45;22.88;;;12.63;;
47455;SDS011;33202;48.512;-2.780;2022-12-18T02:16:24;23.35;;;13.35;;
47455;SDS011;33202;48.512;-2.780;2022-12-18T02:18:53;26.23;;;13.60;;
47455;SDS011;33202;48.512;-2.780;2022-12-18T02:24:02;25.20;;;14.60;;
47455;SDS011;33202;48.512;-2.780;2022-12-18T02:26:33;27.20;;;14.00;;
47455;SDS011;33202;48.512;-2.780;2022-12-18T02:29:01;23.08;;;13.73;;
47455;SDS011;33202;48.512;-2.780;2022-12-18T02:33:57;23.10;;;13.18;;
47455;SDS011;33202;48.512;-2.780;2022-12-18T02:36:25;22.23;;;12.95;;
47455;SDS011;33202;48.512;-2.780;2022-12-18T02:41:18;25.77;;;13.90;;
47455;SDS011;33202;48.512;-2.780;2022-12-18T02:43:46;25.17;;;13.90;;
47455;SDS011;33202;48.512;-2.780;2022-12-18T02:46:22;24.13;;;12.68;;
47455;SDS011;33202;48.512;-2.780;2022-12-18T02:48:49;25.25;;;13.30;;
47455;SDS011;33202;48.512;-2.780;2022-12-18T02:51:22;22.88;;;13.35;;
47455;SDS011;33202;48.512;-2.780;2022-12-18T02:53:51;25.38;;;12.80;;
47455;SDS011;33202;48.512;-2.780;2022-12-18T02:56:24;26.35;;;14.02;;
47455;SDS011;33202;48.512;-2.780;2022-12-18T02:58:55;22.55;;;13.25;;
47455;SDS011;33202;48.512;-2.780;2022-12-18T03:01:33;24.45;;;13.40;;
47455;SDS011;33202;48.512;-2.780;2022-12-18T03:04:10;26.23;;;13.90;;
47455;SDS011;33202;48.512;-2.780;2022-12-18T03:06:41;22.97;;;13.03;;
47455;SDS011;33202;48.512;-2.780;2022-12-18T03:09:13;22.85;;;12.60;;
47455;SDS011;33202;48.512;-2.780;2022-12-18T03:11:41;21.77;;;12.73;;
47455;SDS011;33202;48.512;-2.780;2022-12-18T03:14:29;24.23;;;13.13;;
47455;SDS011;33202;48.512;-2.780;2022-12-18T03:16:57;21.33;;;11.93;;
47455;SDS011;33202;48.512;-2.780;2022-12-18T03:19:26;24.15;;;13.55;;
47455;SDS011;33202;48.512;-2.780;2022-12-18T03:21:54;26.10;;;13.55;;
47455;SDS011;33202;48.512;-2.780;2022-12-18T03:24:21;21.80;;;12.68;;
47455;SDS011;33202;48.512;-2.780;2022-12-18T03:26:47;22.75;;;13.48;;
47455;SDS011;33202;48.512;-2.780;2022-12-18T03:29:16;22.85;;;13.13;;
47455;SDS011;33202;48.512;-2.780;2022-12-18T03:31:45;24.02;;;13.93;;
47455;SDS011;33202;48.512;-2.780;2022-12-18T03:34:14;24.15;;;13.07;;
47455;SDS011;33202;48.512;-2.780;2022-12-18T03:36:41;27.67;;;14.50;;
47455;SDS011;33202;48.512;-2.780;2022-12-18T03:39:08;21.90;;;13.05;;
47455;SDS011;33202;48.512;-2.780;2022-12-18T03:41:44;22.98;;;14.10;;
47455;SDS011;33202;48.512;-2.780;2022-12-18T03:46:51;21.38;;;12.75;;
47455;SDS011;33202;48.512;-2.780;2022-12-18T03:49:40;27.25;;;12.93;;
47455;SDS011;33202;48.512;-2.780;2022-12-18T03:52:05;22.50;;;12.80;;
47455;SDS011;33202;48.512;-2.780;2022-12-18T03:54:32;20.70;;;12.27;;
47455;SDS011;33202;48.512;-2.780;2022-12-18T03:57:21;22.95;;;12.77;;
47455;SDS011;33202;48.512;-2.780;2022-12-18T03:59:45;22.67;;;12.65;;
47455;SDS011;33202;48.512;-2.780;2022-12-18T04:02:12;25.77;;;13.55;;
47455;SDS011;33202;48.512;-2.780;2022-12-18T04:04:39;23.25;;;13.27;;
47455;SDS011;33202;48.512;-2.780;2022-12-18T04:07:06;23.47;;;12.73;;
47455;SDS011;33202;48.512;-2.780;2022-12-18T04:09:32;22.42;;;13.68;;
47455;SDS011;33202;48.512;-2.780;2022-12-18T04:11:59;23.67;;;12.63;;
47455;SDS011;33202;48.512;-2.780;2022-12-18T04:14:25;22.30;;;13.05;;
47455;SDS011;33202;48.512;-2.780;2022-12-18T04:16:51;24.08;;;13.00;;
47455;SDS011;33202;48.512;-2.780;2022-12-18T04:19:17;23.92;;;12.68;;
47455;SDS011;33202;48.512;-2.780;2022-12-18T04:21:43;25.58;;;13.60;;
47455;SDS011;33202;48.512;-2.780;2022-12-18T04:24:09;23.25;;;13.48;;
47455;SDS011;33202;48.512;-2.780;2022-12-18T04:26:35;23.02;;;12.88;;
47455;SDS011;33202;48.512;-2.780;2022-12-18T04:29:01;23.05;;;12.98;;
47455;SDS011;33202;48.512;-2.780;2022-12-18T04:31:28;22.67;;;13.07;;
47455;SDS011;33202;48.512;-2.780;2022-12-18T04:33:54;21.85;;;12.80;;
47455;SDS011;33202;48.512;-2.780;2022-12-18T04:36:20;24.05;;;14.00;;
47455;SDS011;33202;48.512;-2.780;2022-12-18T04:38:46;23.90;;;13.55;;
47455;SDS011;33202;48.512;-2.780;2022-12-18T04:41:12;25.00;;;13.85;;
47455;SDS011;33202;48.512;-2.780;2022-12-18T04:43:38;21.95;;;13.00;;
47455;SDS011;33202;48.512;-2.780;2022-12-18T04:46:05;23.83;;;13.20;;
47455;SDS011;33202;48.512;-2.780;2022-12-18T04:48:31;26.70;;;14.07;;
47455;SDS011;33202;48.512;-2.780;2022-12-18T04:50:57;25.77;;;13.70;;
47455;SDS011;33202;48.512;-2.780;2022-12-18T04:53:23;24.45;;;13.07;;
47455;SDS011;33202;48.512;-2.780;2022-12-18T04:55:49;24.02;;;13.02;;
47455;SDS011;33202;48.512;-2.780;2022-12-18T04:58:15;25.17;;;12.85;;
47455;SDS011;33202;48.512;-2.780;2022-12-18T05:00:41;27.85;;;14.60;;
47455;SDS011;33202;48.512;-2.780;2022-12-18T05:03:07;27.55;;;14.63;;
47455;SDS011;33202;48.512;-2.780;2022-12-18T05:05:36;29.80;;;15.25;;
47455;SDS011;33202;48.512;-2.780;2022-12-18T05:08:02;27.88;;;14.32;;
47455;SDS011;33202;48.512;-2.780;2022-12-18T05:10:28;29.23;;;14.35;;
47455;SDS011;33202;48.512;-2.780;2022-12-18T05:12:54;27.63;;;15.23;;
47455;SDS011;33202;48.512;-2.780;2022-12-18T05:15:23;27.98;;;15.45;;
47455;SDS011;33202;48.512;-2.780;2022-12-18T05:17:50;30.27;;;15.63;;
47455;SDS011;33202;48.512;-2.780;2022-12-18T05:20:16;28.90;;;15.73;;
47455;SDS011;33202;48.512;-2.780;2022-12-18T05:22:43;29.60;;;14.77;;
47455;SDS011;33202;48.512;-2.780;2022-12-18T05:25:09;30.30;;;15.18;;
47455;SDS011;33202;48.512;-2.780;2022-12-18T05:27:35;31.33;;;15.60;;
47455;SDS011;33202;48.512;-2.780;2022-12-18T05:30:01;28.80;;;15.32;;
47455;SDS011;33202;48.512;-2.780;2022-12-18T05:32:27;31.52;;;16.00;;
47455;SDS011;33202;48.512;-2.780;2022-12-18T05:34:53;32.30;;;15.27;;
47455;SDS011;33202;48.512;-2.780;2022-12-18T05:37:19;27.45;;;13.85;;
47455;SDS011;33202;48.512;-2.780;2022-12-18T05:39:45;29.98;;;15.57;;
47455;SDS011;33202;48.512;-2.780;2022-12-18T05:42:11;31.00;;;15.10;;
47455;SDS011;33202;48.512;-2.780;2022-12-18T05:44:37;29.23;;;14.80;;
47455;SDS011;33202;48.512;-2.780;2022-12-18T05:47:03;27.52;;;13.60;;
47455;SDS011;33202;48.512;-2.780;2022-12-18T05:49:29;26.05;;;14.32;;
47455;SDS011;33202;48.512;-2.780;2022-12-18T05:51:55;26.95;;;13.23;;
47455;SDS011;33202;48.512;-2.780;2022-12-18T05:54:21;26.70;;;14.18;;
47455;SDS011;33202;48.512;-2.780;2022-12-18T05:56:47;25.30;;;13.43;;
47455;SDS011;33202;48.512;-2.780;2022-12-18T05:59:13;26.00;;;13.50;;
47455;SDS011;33202;48.512;-2.780;2022-12-18T06:01:39;24.98;;;12.68;;
47455;SDS011;33202;48.512;-2.780;2022-12-18T06:04:05;23.35;;;12.82;;
47455;SDS011;33202;48.512;-2.780;2022-12-18T06:06:31;24.50;;;13.52;;
47455;SDS011;33202;48.512;-2.780;2022-12-18T06:08:57;26.23;;;13.60;;
47455;SDS011;33202;48.512;-2.780;2022-12-18T06:11:25;25.42;;;13.23;;
47455;SDS011;33202;48.512;-2.780;2022-12-18T06:13:51;26.27;;;13.50;;
47455;SDS011;33202;48.512;-2.780;2022-12-18T06:16:18;26.80;;;13.25;;
47455;SDS011;33202;48.512;-2.780;2022-12-18T06:18:44;23.65;;;12.27;;
47455;SDS011;33202;48.512;-2.780;2022-12-18T06:21:10;25.35;;;12.75;;
47455;SDS011;33202;48.512;-2.780;2022-12-18T06:23:36;24.02;;;12.75;;
47455;SDS011;33202;48.512;-2.780;2022-12-18T06:26:06;21.45;;;11.63;;
47455;SDS011;33202;48.512;-2.780;2022-12-18T06:28:32;22.92;;;12.10;;
47455;SDS011;33202;48.512;-2.780;2022-12-18T06:30:58;23.10;;;12.63;;
47455;SDS011;33202;48.512;-2.780;2022-12-18T06:33:27;23.67;;;12.75;;
47455;SDS011;33202;48.512;-2.780;2022-12-18T06:35:58;23.02;;;12.00;;
47455;SDS011;33202;48.512;-2.780;2022-12-18T06:38:25;22.90;;;12.45;;
47455;SDS011;33202;48.512;-2.780;2022-12-18T06:40:51;23.15;;;12.13;;
47455;SDS011;33202;48.512;-2.780;2022-12-18T06:43:17;24.20;;;11.95;;
47455;SDS011;33202;48.512;-2.780;2022-12-18T06:45:43;24.10;;;12.38;;
47455;SDS011;33202;48.512;-2.780;2022-12-18T06:48:09;23.17;;;13.38;;
47455;SDS011;33202;48.512;-2.780;2022-12-18T06:50:35;21.02;;;11.40;;
47455;SDS011;33202;48.512;-2.780;2022-12-18T06:53:01;22.02;;;11.73;;
47455;SDS011;33202;48.512;-2.780;2022-12-18T06:55:27;22.50;;;11.52;;
47455;SDS011;33202;48.512;-2.780;2022-12-18T06:57:53;20.02;;;10.98;;
47455;SDS011;33202;48.512;-2.780;2022-12-18T07:00:19;20.05;;;11.27;;
47455;SDS011;33202;48.512;-2.780;2022-12-18T07:02:45;20.63;;;10.98;;
47455;SDS011;33202;48.512;-2.780;2022-12-18T07:05:11;20.20;;;11.00;;
47455;SDS011;33202;48.512;-2.780;2022-12-18T07:07:37;22.85;;;11.63;;
47455;SDS011;33202;48.512;-2.780;2022-12-18T07:10:03;20.52;;;11.18;;
47455;SDS011;33202;48.512;-2.780;2022-12-18T07:12:29;18.38;;;11.13;;
47455;SDS011;33202;48.512;-2.780;2022-12-18T07:14:55;19.05;;;10.73;;
47455;SDS011;33202;48.512;-2.780;2022-12-18T07:17:21;20.42;;;11.25;;
47455;SDS011;33202;48.512;-2.780;2022-12-18T07:19:47;22.58;;;11.40;;
47455;SDS011;33202;48.512;-2.780;2022-12-18T07:22:13;19.45;;;10.30;;
47455;SDS011;33202;48.512;-2.780;2022-12-18T07:24:39;21.00;;;11.45;;
47455;SDS011;33202;48.512;-2.780;2022-12-18T07:27:05;21.08;;;11.20;;
47455;SDS011;33202;48.512;-2.780;2022-12-18T07:29:31;19.33;;;11.10;;
47455;SDS011;33202;48.512;-2.780;2022-12-18T07:31:57;16.88;;;10.32;;
47455;SDS011;33202;48.512;-2.780;2022-12-18T07:34:23;22.17;;;10.50;;
47455;SDS011;33202;48.512;-2.780;2022-12-18T07:36:49;17.40;;;10.00;;
47455;SDS011;33202;48.512;-2.780;2022-12-18T07:39:15;19.05;;;10.43;;
47455;SDS011;33202;48.512;-2.780;2022-12-18T07:41:41;17.67;;;10.75;;
47455;SDS011;33202;48.512;-2.780;2022-12-18T07:44:10;17.48;;;10.13;;
47455;SDS011;33202;48.512;-2.780;2022-12-18T07:46:36;17.63;;;9.90;;
47455;SDS011;33202;48.512;-2.780;2022-12-18T07:49:03;16.00;;;10.13;;
47455;SDS011;33202;48.512;-2.780;2022-12-18T07:51:29;20.92;;;10.85;;
47455;SDS011;33202;48.512;-2.780;2022-12-18T07:53:56;19.30;;;10.60;;
47455;SDS011;33202;48.512;-2.780;2022-12-18T07:56:22;18.67;;;10.52;;
47455;SDS011;33202;48.512;-2.780;2022-12-18T07:58:48;16.38;;;9.57;;
47455;SDS011;33202;48.512;-2.780;2022-12-18T08:01:14;15.75;;;9.65;;
47455;SDS011;33202;48.512;-2.780;2022-12-18T08:03:40;16.50;;;10.10;;
47455;SDS011;33202;48.512;-2.780;2022-12-18T08:06:07;17.90;;;10.15;;
47455;SDS011;33202;48.512;-2.780;2022-12-18T08:08:33;14.55;;;9.77;;
47455;SDS011;33202;48.512;-2.780;2022-12-18T08:11:00;12.13;;;8.07;;
47455;SDS011;33202;48.512;-2.780;2022-12-18T08:13:26;12.90;;;7.95;;
47455;SDS011;33202;48.512;-2.780;2022-12-18T08:15:59;13.57;;;8.48;;
47455;SDS011;33202;48.512;-2.780;2022-12-18T08:18:25;14.40;;;8.98;;
47455;SDS011;33202;48.512;-2.780;2022-12-18T08:20:51;14.38;;;8.90;;
47455;SDS011;33202;48.512;-2.780;2022-12-18T08:23:17;15.45;;;8.48;;
47455;SDS011;33202;48.512;-2.780;2022-12-18T08:25:43;20.73;;;11.25;;
47455;SDS011;33202;48.512;-2.780;2022-12-18T08:28:10;20.27;;;11.25;;
47455;SDS011;33202;48.512;-2.780;2022-12-18T08:30:36;17.52;;;11.38;;
47455;SDS011;33202;48.512;-2.780;2022-12-18T08:33:02;14.70;;;9.30;;
47455;SDS011;33202;48.512;-2.780;2022-12-18T08:35:28;13.98;;;9.50;;
47455;SDS011;33202;48.512;-2.780;2022-12-18T08:37:54;15.40;;;10.20;;
47455;SDS011;33202;48.512;-2.780;2022-12-18T08:40:20;17.30;;;10.30;;
47455;SDS011;33202;48.512;-2.780;2022-12-18T08:42:46;14.63;;;8.82;;
47455;SDS011;33202;48.512;-2.780;2022-12-18T08:45:30;12.77;;;8.13;;
47455;SDS011;33202;48.512;-2.780;2022-12-18T08:47:56;11.25;;;7.55;;
47455;SDS011;33202;48.512;-2.780;2022-12-18T08:50:22;11.85;;;7.93;;
47455;SDS011;33202;48.512;-2.780;2022-12-18T08:52:48;10.95;;;7.30;;
47455;SDS011;33202;48.512;-2.780;2022-12-18T08:55:14;9.05;;;5.95;;
47455;SDS011;33202;48.512;-2.780;2022-12-18T08:57:40;8.15;;;5.80;;
47455;SDS011;33202;48.512;-2.780;2022-12-18T09:00:06;8.45;;;5.97;;
47455;SDS011;33202;48.512;-2.780;2022-12-18T09:02:33;9.38;;;6.70;;
47455;SDS011;33202;48.512;-2.780;2022-12-18T09:04:59;10.90;;;7.18;;
47455;SDS011;33202;48.512;-2.780;2022-12-18T09:07:25;11.23;;;6.90;;
47455;SDS011;33202;48.512;-2.780;2022-12-18T09:09:51;8.18;;;5.45;;
47455;SDS011;33202;48.512;-2.780;2022-12-18T09:12:17;10.13;;;6.57;;
47455;SDS011;33202;48.512;-2.780;2022-12-18T09:14:43;15.75;;;7.22;;
47455;SDS011;33202;48.512;-2.780;2022-12-18T09:17:09;10.57;;;5.82;;
47455;SDS011;33202;48.512;-2.780;2022-12-18T09:19:35;11.45;;;6.28;;
47455;SDS011;33202;48.512;-2.780;2022-12-18T09:22:01;8.63;;;5.68;;
47455;SDS011;33202;48.512;-2.780;2022-12-18T09:24:27;11.88;;;6.90;;
47455;SDS011;33202;48.512;-2.780;2022-12-18T09:26:53;10.25;;;6.45;;
47455;SDS011;33202;48.512;-2.780;2022-12-18T09:29:20;10.15;;;6.30;;
47455;SDS011;33202;48.512;-2.780;2022-12-18T09:31:46;11.82;;;5.97;;
47455;SDS011;33202;48.512;-2.780;2022-12-18T09:34:12;10.32;;;6.05;;
47455;SDS011;33202;48.512;-2.780;2022-12-18T09:36:38;8.98;;;4.97;;
47455;SDS011;33202;48.512;-2.780;2022-12-18T09:39:04;10.55;;;6.20;;
47455;SDS011;33202;48.512;-2.780;2022-12-18T09:41:37;10.60;;;6.85;;
47455;SDS011;33202;48.512;-2.780;2022-12-18T09:44:52;8.40;;;5.30;;
47455;SDS011;33202;48.512;-2.780;2022-12-18T09:49:18;12.23;;;6.93;;
47455;SDS011;33202;48.512;-2.780;2022-12-18T09:51:56;13.82;;;8.52;;
47455;SDS011;33202;48.512;-2.780;2022-12-18T09:54:28;8.80;;;5.65;;
47455;SDS011;33202;48.512;-2.780;2022-12-18T09:56:57;8.88;;;6.00;;
47455;SDS011;33202;48.512;-2.780;2022-12-18T09:59:24;7.80;;;5.03;;
47455;SDS011;33202;48.512;-2.780;2022-12-18T10:01:50;7.00;;;4.85;;
47455;SDS011;33202;48.512;-2.780;2022-12-18T10:04:16;9.10;;;5.18;;
47455;SDS011;33202;48.512;-2.780;2022-12-18T10:06:46;8.40;;;5.30;;
47455;SDS011;33202;48.512;-2.780;2022-12-18T10:12:14;9.85;;;6.15;;
47455;SDS011;33202;48.512;-2.780;2022-12-18T10:14:46;11.18;;;6.38;;
47455;SDS011;33202;48.512;-2.780;2022-12-18T10:19:50;9.70;;;6.05;;
47455;SDS011;33202;48.512;-2.780;2022-12-18T10:27:29;9.98;;;6.35;;
47455;SDS011;33202;48.512;-2.780;2022-12-18T10:29:56;7.63;;;5.47;;
47455;SDS011;33202;48.512;-2.780;2022-12-18T10:32:24;7.43;;;5.17;;
47455;SDS011;33202;48.512;-2.780;2022-12-18T10:34:51;9.35;;;5.60;;
47455;SDS011;33202;48.512;-2.780;2022-12-18T10:37:18;8.25;;;5.82;;
47455;SDS011;33202;48.512;-2.780;2022-12-18T10:39:46;9.27;;;5.72;;
47455;SDS011;33202;48.512;-2.780;2022-12-18T10:42:19;7.95;;;5.20;;
47455;SDS011;33202;48.512;-2.780;2022-12-18T10:44:45;8.95;;;5.93;;
47455;SDS011;33202;48.512;-2.780;2022-12-18T10:47:15;10.80;;;6.25;;
47455;SDS011;33202;48.512;-2.780;2022-12-18T10:49:49;8.95;;;6.28;;
47455;SDS011;33202;48.512;-2.780;2022-12-18T10:52:22;12.05;;;7.75;;
47455;SDS011;33202;48.512;-2.780;2022-12-18T10:55:00;11.48;;;6.60;;
47455;SDS011;33202;48.512;-2.780;2022-12-18T10:57:32;13.20;;;7.70;;
47455;SDS011;33202;48.512;-2.780;2022-12-18T10:59:59;10.93;;;6.78;;
47455;SDS011;33202;48.512;-2.780;2022-12-18T11:02:27;24.63;;;14.85;;
47455;SDS011;33202;48.512;-2.780;2022-12-18T11:04:54;20.55;;;11.32;;
47455;SDS011;33202;48.512;-2.780;2022-12-18T11:07:20;11.90;;;7.82;;
47455;SDS011;33202;48.512;-2.780;2022-12-18T11:09:46;13.05;;;8.45;;
47455;SDS011;33202;48.512;-2.780;2022-12-18T11:12:25;14.43;;;9.02;;
47455;SDS011;33202;48.512;-2.780;2022-12-18T11:14:53;13.20;;;8.20;;
47455;SDS011;33202;48.512;-2.780;2022-12-18T11:19:52;10.45;;;7.55;;
47455;SDS011;33202;48.512;-2.780;2022-12-18T11:22:20;14.88;;;7.20;;
47455;SDS011;33202;48.512;-2.780;2022-12-18T11:24:52;14.50;;;8.55;;
47455;SDS011;33202;48.512;-2.780;2022-12-18T11:27:19;12.48;;;8.48;;
47455;SDS011;33202;48.512;-2.780;2022-12-18T11:29:45;13.27;;;8.50;;
47455;SDS011;33202;48.512;-2.780;2022-12-18T11:34:50;11.70;;;7.45;;
47455;SDS011;33202;48.512;-2.780;2022-12-18T11:37:17;11.80;;;7.38;;
47455;SDS011;33202;48.512;-2.780;2022-12-18T11:39:49;13.15;;;8.35;;
47455;SDS011;33202;48.512;-2.780;2022-12-18T11:42:20;11.05;;;7.88;;
47455;SDS011;33202;48.512;-2.780;2022-12-18T11:44:51;11.07;;;7.47;;
47455;SDS011;33202;48.512;-2.780;2022-12-18T11:47:24;8.25;;;5.93;;
47455;SDS011;33202;48.512;-2.780;2022-12-18T11:49:50;10.57;;;7.28;;
47455;SDS011;33202;48.512;-2.780;2022-12-18T11:52:27;10.90;;;7.43;;
47455;SDS011;33202;48.512;-2.780;2022-12-18T11:54:55;12.63;;;8.25;;
47455;SDS011;33202;48.512;-2.780;2022-12-18T12:03:33;9.50;;;6.55;;
47455;SDS011;33202;48.512;-2.780;2022-12-18T12:07:52;11.90;;;7.28;;
47455;SDS011;33202;48.512;-2.780;2022-12-18T12:13:02;16.88;;;11.35;;
47455;SDS011;33202;48.512;-2.780;2022-12-18T12:15:42;12.32;;;8.30;;
47455;SDS011;33202;48.512;-2.780;2022-12-18T12:23:26;15.20;;;9.68;;
47455;SDS011;33202;48.512;-2.780;2022-12-18T12:26:07;16.35;;;10.38;;
47455;SDS011;33202;48.512;-2.780;2022-12-18T12:28:41;10.80;;;8.02;;
47455;SDS011;33202;48.512;-2.780;2022-12-18T12:34:15;8.98;;;6.10;;
47455;SDS011;33202;48.512;-2.780;2022-12-18T12:39:19;10.85;;;7.05;;
47455;SDS011;33202;48.512;-2.780;2022-12-18T12:41:46;10.70;;;6.75;;
47455;SDS011;33202;48.512;-2.780;2022-12-18T12:45:14;9.75;;;7.43;;
47455;SDS011;33202;48.512;-2.780;2022-12-18T12:47:22;12.23;;;7.30;;
47455;SDS011;33202;48.512;-2.780;2022-12-18T12:49:48;10.55;;;7.65;;
47455;SDS011;33202;48.512;-2.780;2022-12-18T12:52:16;9.57;;;6.68;;
47455;SDS011;33202;48.512;-2.780;2022-12-18T12:54:43;11.07;;;7.47;;
47455;SDS011;33202;48.512;-2.780;2022-12-18T12:57:23;8.55;;;6.68;;
47455;SDS011;33202;48.512;-2.780;2022-12-18T13:00:02;9.30;;;7.05;;
47455;SDS011;33202;48.512;-2.780;2022-12-18T13:05:16;26.20;;;13.35;;
47455;SDS011;33202;48.512;-2.780;2022-12-18T13:07:49;11.85;;;7.43;;
47455;SDS011;33202;48.512;-2.780;2022-12-18T13:13:05;9.55;;;6.63;;
47455;SDS011;33202;48.512;-2.780;2022-12-18T13:15:39;9.45;;;6.47;;
47455;SDS011;33202;48.512;-2.780;2022-12-18T13:25:51;8.43;;;6.13;;
47455;SDS011;33202;48.512;-2.780;2022-12-18T13:28:50;9.60;;;6.55;;
47455;SDS011;33202;48.512;-2.780;2022-12-18T13:31:10;9.68;;;6.60;;
47455;SDS011;33202;48.512;-2.780;2022-12-18T13:36:09;7.97;;;6.25;;
47455;SDS011;33202;48.512;-2.780;2022-12-18T13:38:38;7.57;;;5.35;;
47455;SDS011;33202;48.512;-2.780;2022-12-18T13:49:06;8.20;;;5.65;;
47455;SDS011;33202;48.512;-2.780;2022-12-18T13:51:41;14.13;;;9.55;;
47455;SDS011;33202;48.512;-2.780;2022-12-18T13:56:52;13.77;;;9.48;;
47455;SDS011;33202;48.512;-2.780;2022-12-18T14:01:45;9.60;;;7.32;;
47455;SDS011;33202;48.512;-2.780;2022-12-18T14:04:16;10.05;;;7.78;;
47455;SDS011;33202;48.512;-2.780;2022-12-18T14:06:43;9.57;;;7.15;;
47455;SDS011;33202;48.512;-2.780;2022-12-18T14:09:13;12.32;;;7.47;;
47455;SDS011;33202;48.512;-2.780;2022-12-18T14:11:39;9.68;;;6.80;;
47455;SDS011;33202;48.512;-2.780;2022-12-18T14:14:05;9.68;;;6.82;;
47455;SDS011;33202;48.512;-2.780;2022-12-18T14:16:32;14.65;;;7.32;;
47455;SDS011;33202;48.512;-2.780;2022-12-18T14:18:59;8.85;;;6.72;;
47455;SDS011;33202;48.512;-2.780;2022-12-18T14:21:27;10.52;;;6.60;;
47455;SDS011;33202;48.512;-2.780;2022-12-18T14:31:45;9.38;;;6.55;;
47455;SDS011;33202;48.512;-2.780;2022-12-18T14:34:15;11.25;;;7.30;;
47455;SDS011;33202;48.512;-2.780;2022-12-18T14:36:41;9.82;;;6.63;;
47455;SDS011;33202;48.512;-2.780;2022-12-18T14:39:17;9.60;;;6.20;;
47455;SDS011;33202;48.512;-2.780;2022-12-18T14:41:43;9.63;;;6.05;;
47455;SDS011;33202;48.512;-2.780;2022-12-18T14:44:11;9.35;;;5.80;;
47455;SDS011;33202;48.512;-2.780;2022-12-18T14:46:38;8.93;;;5.53;;
47455;SDS011;33202;48.512;-2.780;2022-12-18T14:51:50;8.82;;;5.80;;
47455;SDS011;33202;48.512;-2.780;2022-12-18T14:54:18;8.43;;;4.63;;
47455;SDS011;33202;48.512;-2.780;2022-12-18T14:56:46;8.63;;;5.40;;
47455;SDS011;33202;48.512;-2.780;2022-12-18T14:59:22;6.80;;;4.78;;
47455;SDS011;33202;48.512;-2.780;2022-12-18T15:01:59;9.25;;;5.50;;
47455;SDS011;33202;48.512;-2.780;2022-12-18T15:04:31;7.20;;;5.07;;
47455;SDS011;33202;48.512;-2.780;2022-12-18T15:07:07;8.68;;;5.10;;
47455;SDS011;33202;48.512;-2.780;2022-12-18T15:09:34;7.80;;;5.00;;
47455;SDS011;33202;48.512;-2.780;2022-12-18T15:12:00;7.80;;;5.30;;
47455;SDS011;33202;48.512;-2.780;2022-12-18T15:16:56;7.57;;;5.07;;
47455;SDS011;33202;48.512;-2.780;2022-12-18T15:19:26;7.75;;;4.85;;
47455;SDS011;33202;48.512;-2.780;2022-12-18T15:21:53;9.43;;;5.18;;
47455;SDS011;33202;48.512;-2.780;2022-12-18T15:24:24;9.35;;;5.45;;
47455;SDS011;33202;48.512;-2.780;2022-12-18T15:26:52;9.50;;;4.88;;
47455;SDS011;33202;48.512;-2.780;2022-12-18T15:29:19;7.18;;;4.88;;
47455;SDS011;33202;48.512;-2.780;2022-12-18T15:31:45;7.18;;;4.82;;
47455;SDS011;33202;48.512;-2.780;2022-12-18T15:34:23;6.70;;;4.43;;
47455;SDS011;33202;48.512;-2.780;2022-12-18T15:36:51;6.63;;;4.47;;
47455;SDS011;33202;48.512;-2.780;2022-12-18T15:39:17;6.55;;;4.60;;
47455;SDS011;33202;48.512;-2.780;2022-12-18T15:41:43;7.65;;;4.30;;
47455;SDS011;33202;48.512;-2.780;2022-12-18T15:44:29;7.05;;;4.22;;
47455;SDS011;33202;48.512;-2.780;2022-12-18T15:46:55;6.43;;;4.45;;
47455;SDS011;33202;48.512;-2.780;2022-12-18T15:49:21;6.70;;;4.43;;
47455;SDS011;33202;48.512;-2.780;2022-12-18T15:51:54;5.75;;;4.25;;
47455;SDS011;33202;48.512;-2.780;2022-12-18T15:54:22;7.05;;;4.30;;
47455;SDS011;33202;48.512;-2.780;2022-12-18T15:57:11;5.60;;;3.85;;
47455;SDS011;33202;48.512;-2.780;2022-12-18T15:59:54;6.13;;;3.60;;
47455;SDS011;33202;48.512;-2.780;2022-12-18T16:02:21;6.55;;;3.28;;